Time;durP1;ratioP1;P1;durP2;ratioP2;P2;SDS_P1;SDS_P2;PMS_P1;PMS_P2;Temp;Humidity;BMP_temperature;BMP_pressure;BME280_temperature;BME280_humidity;BME280_pressure;Samples;Min_cycle;Max_cycle;Signal;HPM_P1;HPM_P2
2023/10/15 00:00:19;;;;;;;10.82;7.93;;;;;;;14.96;69.99;98309.75;5133296;27;20043;-61
2023/10/15 00:02:51;;;;;;;10.15;7.35;;;;;;;15.10;70.26;98343.09;5133209;27;20227;-59
2023/10/15 00:05:18;;;;;;;9.90;7.57;;;;;;;15.07;70.16;98344.28;5133371;27;20031;-59
2023/10/15 00:07:45;;;;;;;8.27;7.38;;;;;;;15.07;70.24;98346.97;5133847;27;20069;-60
2023/10/15 00:10:16;;;;;;;9.93;7.60;;;;;;;15.17;69.81;98345.84;5131560;27;20030;-58
2023/10/15 00:12:46;;;;;;;13.85;8.90;;;;;;;15.16;69.96;98345.00;5136572;27;20024;-58
2023/10/15 00:15:19;;;;;;;14.65;7.85;;;;;;;15.07;69.75;98324.56;5137603;27;20349;-59
2023/10/15 00:17:47;;;;;;;10.98;7.60;;;;;;;15.07;70.00;98329.97;5136471;27;20065;-59
2023/10/15 00:20:16;;;;;;;13.65;7.93;;;;;;;14.97;70.38;98326.75;5135800;27;20056;-59
2023/10/15 00:22:47;;;;;;;10.45;8.27;;;;;;;14.86;70.51;98306.50;5135539;27;20130;-60
2023/10/15 00:25:14;;;;;;;11.13;7.90;;;;;;;15.02;70.43;98333.25;5136412;27;20141;-58
2023/10/15 00:27:54;;;;;;;10.25;7.80;;;;;;;15.01;70.44;98334.28;5137318;27;20034;-60
2023/10/15 00:30:21;;;;;;;10.23;8.15;;;;;;;14.88;70.26;98326.00;5137128;27;20369;-59
2023/10/15 00:32:52;;;;;;;9.82;8.10;;;;;;;14.92;70.68;98343.47;5137089;27;20394;-61
2023/10/15 00:35:21;;;;;;;9.55;7.75;;;;;;;14.89;70.67;98327.69;5137146;27;20027;-60
2023/10/15 00:38:30;;;;;;;12.60;9.27;;;;;;;14.85;70.84;98319.16;5135512;27;20110;-58
2023/10/15 00:40:41;;;;;;;11.35;7.82;;;;;;;14.85;70.91;98321.00;5131293;27;20054;-61
2023/10/15 00:43:07;;;;;;;12.82;7.72;;;;;;;14.79;71.01;98325.28;5135234;27;20023;-61
2023/10/15 00:45:36;;;;;;;12.93;8.27;;;;;;;14.76;71.36;98318.44;5137017;27;20031;-60
2023/10/15 00:48:07;;;;;;;13.10;7.63;;;;;;;14.80;71.04;98326.13;5137025;27;20023;-59
2023/10/15 00:50:38;;;;;;;13.40;7.97;;;;;;;14.82;71.10;98316.00;5136609;27;20134;-59
2023/10/15 00:53:26;;;;;;;9.68;7.45;;;;;;;14.83;71.21;98312.28;5136950;27;20031;-61
2023/10/15 00:56:10;;;;;;;12.48;8.32;;;;;;;14.87;71.03;98327.03;5136822;27;20473;-60
2023/10/15 01:03:48;;;;;;;13.18;9.00;;;;;;;14.79;71.33;98327.97;5115955;27;20038;-60
2023/10/15 01:06:27;;;;;;;13.48;8.23;;;;;;;14.87;71.09;98324.34;5116512;28;20042;-59
2023/10/15 01:08:55;;;;;;;11.95;8.40;;;;;;;14.84;70.94;98313.94;5116656;27;20023;-60
2023/10/15 01:11:27;;;;;;;12.55;8.00;;;;;;;14.93;70.90;98307.41;5115050;28;20115;-59
2023/10/15 01:13:56;;;;;;;9.90;7.72;;;;;;;14.91;70.85;98307.63;5115954;28;20024;-59
2023/10/15 01:16:23;;;;;;;12.07;7.90;;;;;;;14.94;70.82;98314.47;5116864;27;20435;-60
2023/10/15 01:19:15;;;;;;;12.40;8.38;;;;;;;14.78;70.65;98267.88;5115655;28;20126;-61
2023/10/15 01:21:53;;;;;;;10.45;7.95;;;;;;;15.02;70.42;98311.69;5115622;28;20044;-60
2023/10/15 01:24:20;;;;;;;11.55;7.95;;;;;;;14.99;70.55;98319.31;5114765;28;20046;-60
2023/10/15 01:27:30;;;;;;;11.98;7.57;;;;;;;14.96;70.60;98317.84;5115941;28;20335;-60
2023/10/15 01:29:48;;;;;;;11.05;7.72;;;;;;;14.98;70.48;98315.78;5110205;28;20458;-62
2023/10/15 01:32:16;;;;;;;14.40;7.28;;;;;;;14.99;70.79;98316.59;5095441;28;20068;-60
2023/10/15 01:34:45;;;;;;;14.98;8.23;;;;;;;14.77;70.63;98297.69;5114106;27;20027;-61
2023/10/15 01:39:48;;;;;;;13.52;7.95;;;;;;;14.97;70.73;98318.66;5115545;28;20033;-59
2023/10/15 01:44:57;;;;;;;10.90;7.95;;;;;;;15.05;70.52;98327.47;5115100;28;20465;-60
2023/10/15 01:47:28;;;;;;;13.05;8.10;;;;;;;15.06;70.26;98312.13;5115326;28;20035;-61
2023/10/15 01:49:56;;;;;;;9.02;7.30;;;;;;;15.19;70.06;98316.81;5116109;27;20465;-59
2023/10/15 01:52:30;;;;;;;12.73;7.47;;;;;;;15.23;69.97;98312.75;5115047;27;20031;-59
2023/10/15 01:55:02;;;;;;;11.80;7.93;;;;;;;15.26;69.39;98309.66;5114930;28;20054;-60
2023/10/15 01:57:30;;;;;;;11.27;7.97;;;;;;;15.35;69.34;98326.56;5115120;28;20081;-60
2023/10/15 02:00:05;;;;;;;12.00;8.10;;;;;;;15.35;69.37;98316.59;5115700;27;20046;-59
2023/10/15 02:02:32;;;;;;;12.27;7.80;;;;;;;15.41;69.16;98304.19;5115131;28;20031;-59
2023/10/15 02:04:58;;;;;;;11.20;7.72;;;;;;;15.38;68.91;98298.34;5114554;28;20054;-59
2023/10/15 02:07:24;;;;;;;11.88;8.23;;;;;;;15.36;69.15;98312.84;5114589;28;20039;-59
2023/10/15 02:09:51;;;;;;;14.50;8.20;;;;;;;15.36;69.09;98315.56;5114999;28;20024;-61
2023/10/15 02:12:20;;;;;;;13.85;8.15;;;;;;;15.37;69.27;98311.00;5114023;28;20061;-60
2023/10/15 02:14:47;;;;;;;13.73;8.25;;;;;;;15.37;69.33;98300.22;5115710;27;20026;-60
2023/10/15 02:17:18;;;;;;;13.30;8.25;;;;;;;15.21;69.10;98282.44;5114547;28;20391;-60
2023/10/15 02:19:44;;;;;;;14.63;8.25;;;;;;;15.43;69.09;98321.03;5114536;28;20030;-59
2023/10/15 02:22:14;;;;;;;9.18;7.55;;;;;;;15.45;69.14;98321.66;5114334;28;20040;-60
2023/10/15 02:24:47;;;;;;;11.93;7.93;;;;;;;15.44;69.27;98319.19;5115584;27;20046;-60
2023/10/15 02:27:24;;;;;;;12.18;7.80;;;;;;;15.52;69.02;98328.97;5114294;28;20369;-61
2023/10/15 02:29:51;;;;;;;11.40;7.88;;;;;;;15.50;68.89;98313.00;5114740;28;20035;-62
2023/10/15 02:32:31;;;;;;;10.35;7.72;;;;;;;15.52;68.81;98319.03;5114494;28;20039;-59
2023/10/15 02:35:05;;;;;;;11.18;7.85;;;;;;;15.56;68.52;98316.78;5113281;28;20370;-58
2023/10/15 02:37:31;;;;;;;11.73;7.72;;;;;;;15.55;68.43;98315.09;5114120;28;20032;-60
2023/10/15 02:39:58;;;;;;;13.70;7.28;;;;;;;15.53;68.64;98320.69;5115279;27;20053;-60
2023/10/15 02:42:30;;;;;;;11.15;7.82;;;;;;;15.47;68.61;98330.41;5114075;28;20027;-59
2023/10/15 02:44:59;;;;;;;12.13;7.78;;;;;;;15.50;68.80;98326.50;5114013;28;20454;-59
2023/10/15 02:47:31;;;;;;;10.63;7.43;;;;;;;15.48;68.86;98336.63;5113858;28;20024;-60
2023/10/15 02:50:03;;;;;;;12.05;7.88;;;;;;;15.22;69.03;98300.28;5115112;27;20028;-60
2023/10/15 02:52:45;;;;;;;12.57;7.60;;;;;;;15.45;68.82;98332.44;5113733;28;20031;-60
2023/10/15 02:55:12;;;;;;;13.07;8.13;;;;;;;15.43;68.99;98328.25;5113648;28;20346;-59
2023/10/15 02:57:38;;;;;;;11.80;7.45;;;;;;;15.40;68.78;98312.47;5113879;28;20479;-61
2023/10/15 03:02:52;;;;;;;14.15;7.75;;;;;;;15.48;68.66;98320.47;5113951;28;20031;-60
2023/10/15 03:05:18;;;;;;;10.90;7.38;;;;;;;15.45;68.69;98327.06;5114480;27;20196;-61
2023/10/15 03:07:44;;;;;;;10.13;8.27;;;;;;;15.27;68.72;98297.00;5112806;28;20872;-61
2023/10/15 03:10:24;;;;;;;12.55;7.72;;;;;;;15.47;68.70;98321.47;5113647;28;20092;-58
2023/10/15 03:12:49;;;;;;;15.82;10.02;;;;;;;15.46;68.84;98334.13;5113763;27;20059;-60
2023/10/15 03:15:16;;;;;;;13.05;8.80;;;;;;;15.42;68.83;98315.81;5113376;28;20039;-62
2023/10/15 03:17:43;;;;;;;16.02;11.02;;;;;;;15.44;69.06;98319.19;5113560;28;20031;-60
2023/10/15 03:22:46;;;;;;;13.00;8.40;;;;;;;15.51;68.83;98320.06;5113666;28;20048;-60
2023/10/15 03:25:16;;;;;;;15.93;11.80;;;;;;;15.50;68.88;98321.09;5114342;27;20050;-59
2023/10/15 03:27:53;;;;;;;13.73;8.77;;;;;;;15.50;68.77;98334.56;5113405;28;20105;-58
2023/10/15 03:30:23;;;;;;;12.10;8.57;;;;;;;15.47;68.70;98332.28;5113507;28;20028;-59
2023/10/15 03:32:52;;;;;;;12.60;9.00;;;;;;;15.49;68.88;98331.03;5113341;28;20032;-60
2023/10/15 03:35:27;;;;;;;13.98;8.90;;;;;;;15.49;68.88;98324.81;5113188;28;20033;-61
2023/10/15 03:37:59;;;;;;;14.40;9.00;;;;;;;15.50;68.58;98318.41;5112864;28;20041;-58
2023/10/15 03:40:32;;;;;;;14.25;8.63;;;;;;;15.51;68.56;98311.97;5114716;28;20065;-60
2023/10/15 03:43:06;;;;;;;13.35;8.95;;;;;;;15.49;68.64;98314.84;5113073;28;20027;-59
2023/10/15 03:45:50;;;;;;;14.82;8.55;;;;;;;15.50;68.73;98313.00;5113081;28;20096;-60
2023/10/15 03:48:18;;;;;;;11.45;8.50;;;;;;;15.46;68.68;98307.16;5114094;28;20030;-61
2023/10/15 03:50:57;;;;;;;13.07;8.60;;;;;;;15.47;68.81;98305.31;5112781;28;20027;-61
2023/10/15 03:53:31;;;;;;;13.48;8.25;;;;;;;15.46;68.98;98306.31;5095454;28;20042;-61
2023/10/15 03:56:09;;;;;;;13.60;8.73;;;;;;;15.49;69.04;98320.25;5112203;28;20350;-60
2023/10/15 03:58:34;;;;;;;12.65;7.75;;;;;;;15.47;68.71;98329.56;5113234;28;20027;-60
2023/10/15 04:01:17;;;;;;;12.77;8.20;;;;;;;15.46;68.75;98306.31;5112768;28;20387;-61
2023/10/15 04:03:46;;;;;;;14.07;8.45;;;;;;;15.46;68.94;98309.03;5114012;28;20035;-60
2023/10/15 04:06:13;;;;;;;14.10;8.57;;;;;;;15.49;69.15;98314.84;5112775;28;20042;-61
2023/10/15 04:08:39;;;;;;;12.10;8.85;;;;;;;15.49;69.55;98311.34;5112983;28;20295;-60
2023/10/15 04:11:06;;;;;;;12.02;8.82;;;;;;;15.49;69.35;98325.63;5112856;28;20035;-61
2023/10/15 04:13:32;;;;;;;14.48;9.38;;;;;;;15.26;69.36;98280.00;5112016;28;20036;-60
2023/10/15 04:15:58;;;;;;;12.05;8.95;;;;;;;15.43;69.70;98314.78;5112915;28;20031;-61
2023/10/15 04:18:25;;;;;;;12.90;8.73;;;;;;;15.41;69.68;98328.47;5114282;28;20114;-60
2023/10/15 04:20:51;;;;;;;14.68;10.18;;;;;;;15.39;70.15;98332.38;5112776;28;20070;-60
2023/10/15 04:23:34;;;;;;;16.88;9.63;;;;;;;15.37;70.21;98337.97;5111692;28;20091;-60
2023/10/15 04:26:09;;;;;;;15.52;9.88;;;;;;;15.35;70.32;98326.56;5112747;28;20143;-61
2023/10/15 04:28:36;;;;;;;;;;;;;;;15.67;69.71;98329.75;5114120;28;20027;-61
2023/10/15 04:31:09;;;;;;;14.85;9.73;;;;;;;15.45;69.96;98331.63;5112214;28;19912;-60
2023/10/15 04:33:35;;;;;;;19.08;10.20;;;;;;;15.30;70.27;98323.56;5112850;28;20092;-60
2023/10/15 04:36:01;;;;;;;16.90;10.50;;;;;;;15.24;70.60;98322.50;5094953;28;20502;-59
2023/10/15 04:38:28;;;;;;;12.35;10.07;;;;;;;14.99;70.85;98301.28;5113039;28;20498;-61
2023/10/15 04:43:26;;;;;;;17.48;10.63;;;;;;;15.17;71.18;98340.44;5116838;28;20030;-60
2023/10/15 04:45:57;;;;;;;17.83;11.48;;;;;;;15.23;71.23;98350.50;5133099;27;20060;-60
2023/10/15 04:48:27;;;;;;;15.73;11.57;;;;;;;15.21;71.28;98363.31;5132889;27;20066;-60
2023/10/15 04:50:53;;;;;;;19.85;12.73;;;;;;;15.19;71.11;98362.66;5132981;27;20077;-60
2023/10/15 04:55:48;;;;;;;16.33;12.02;;;;;;;15.19;71.73;98365.34;5112057;28;20063;-60
2023/10/15 04:58:14;;;;;;;14.13;12.00;;;;;;;15.12;72.08;98375.22;5112490;28;20438;-61
2023/10/15 05:00:44;;;;;;;16.70;11.30;;;;;;;15.13;72.31;98371.50;5115422;28;20311;-62
2023/10/15 05:03:10;;;;;;;14.75;11.15;;;;;;;15.16;72.45;98381.91;5114598;28;20027;-60
2023/10/15 05:05:36;;;;;;;16.50;11.13;;;;;;;15.16;72.51;98379.22;5115672;28;20050;-60
2023/10/15 05:08:02;;;;;;;17.27;11.45;;;;;;;14.96;72.46;98338.56;5114545;28;20028;-60
2023/10/15 05:10:33;;;;;;;16.85;12.27;;;;;;;15.20;72.52;98369.75;5116553;27;20038;-60
2023/10/15 05:12:59;;;;;;;15.95;12.00;;;;;;;15.17;72.78;98372.78;5115825;28;20028;-59
2023/10/15 05:15:25;;;;;;;18.80;11.77;;;;;;;15.13;72.87;98374.19;5115546;28;20030;-57
2023/10/15 05:17:51;;;;;;;17.70;11.80;;;;;;;15.08;73.07;98374.78;5116303;27;20023;-62
2023/10/15 05:20:20;;;;;;;19.88;12.45;;;;;;;15.04;73.48;98373.47;5114868;28;20054;-60
2023/10/15 05:22:50;;;;;;;15.68;12.43;;;;;;;15.01;73.52;98382.78;5114738;28;20055;-59
2023/10/15 05:25:19;;;;;;;18.15;12.35;;;;;;;15.01;73.78;98380.09;5115300;28;20446;-60
2023/10/15 05:27:45;;;;;;;16.55;11.25;;;;;;;14.95;73.59;98358.44;5115176;28;20019;-61
2023/10/15 05:30:12;;;;;;;14.85;11.77;;;;;;;14.91;74.02;98374.13;5112029;28;20076;-61
2023/10/15 05:32:38;;;;;;;15.55;11.10;;;;;;;14.90;74.46;98383.25;5118828;27;20023;-60
2023/10/15 05:35:08;;;;;;;18.60;11.23;;;;;;;14.90;74.50;98399.41;5115204;28;20032;-61
2023/10/15 05:37:36;;;;;;;10.55;7.18;;;;;;;14.73;72.41;98393.38;5112147;28;20446;-62
2023/10/15 05:40:03;;;;;;;9.38;5.45;;;;;;;14.61;71.51;98393.00;5114910;28;20035;-60
2023/10/15 05:42:29;;;;;;;8.25;5.10;;;;;;;14.45;71.60;98412.84;5114861;28;20454;-58
2023/10/15 05:44:56;;;;;;;5.13;3.80;;;;;;;14.27;71.14;98414.03;5114624;28;20035;-60
2023/10/15 05:47:22;;;;;;;7.88;3.60;;;;;;;14.09;70.46;98413.50;5115292;27;20028;-59
2023/10/15 05:49:48;;;;;;;5.90;3.35;;;;;;;13.89;70.46;98422.91;5113481;28;20024;-56
2023/10/15 05:52:13;;;;;;;6.22;3.03;;;;;;;13.72;70.16;98399.84;5114391;28;20028;-64
2023/10/15 05:54:39;;;;;;;3.75;2.58;;;;;;;13.61;68.83;98395.72;5114544;28;20169;-59
2023/10/15 05:57:06;;;;;;;4.05;2.58;;;;;;;13.53;68.84;98391.25;5094549;28;20063;-56
2023/10/15 05:59:35;;;;;;;3.67;2.55;;;;;;;13.42;69.40;98391.63;5112353;28;20031;-58
2023/10/15 06:02:02;;;;;;;6.53;2.28;;;;;;;13.31;68.69;98401.78;5114429;28;20039;-58
2023/10/15 06:04:28;;;;;;;2.70;1.77;;;;;;;13.21;67.49;98390.38;5113212;28;20028;-57
2023/10/15 06:06:55;;;;;;;7.25;4.43;;;;;;;13.01;67.93;98380.06;5114377;28;20462;-57
2023/10/15 06:09:20;;;;;;;11.20;8.55;;;;;;;12.98;69.29;98384.97;5113747;28;20020;-57
2023/10/15 06:11:46;;;;;;;6.65;4.78;;;;;;;12.70;68.03;98359.41;5115355;27;20450;-59
2023/10/15 06:14:11;;;;;;;12.23;4.95;;;;;;;12.82;68.74;98388.56;5114236;27;20034;-57
2023/10/15 06:16:37;;;;;;;7.22;3.97;;;;;;;12.74;69.50;98384.06;5113027;28;20441;-59
2023/10/15 06:19:02;;;;;;;10.60;5.80;;;;;;;12.85;70.82;98404.34;5114293;28;20036;-59
2023/10/15 06:21:28;;;;;;;11.32;7.80;;;;;;;12.90;70.75;98410.03;5114089;28;20495;-59
2023/10/15 06:23:54;;;;;;;8.32;5.65;;;;;;;12.87;69.77;98426.50;5113662;28;20055;-57
2023/10/15 06:26:20;;;;;;;8.40;4.35;;;;;;;12.86;69.47;98424.81;5113545;28;20119;-58
2023/10/15 06:28:45;;;;;;;8.40;3.67;;;;;;;12.96;68.76;98435.34;5114221;27;20028;-60
2023/10/15 06:31:11;;;;;;;7.75;3.47;;;;;;;12.95;67.87;98437.19;5118200;27;20326;-60
2023/10/15 06:33:40;;;;;;;7.53;2.88;;;;;;;12.86;67.18;98455.19;5114434;28;20035;-58
2023/10/15 06:36:07;;;;;;;11.73;3.05;;;;;;;12.80;67.33;98465.81;5113178;28;20349;-59
2023/10/15 06:38:33;;;;;;;6.35;2.70;;;;;;;12.63;68.32;98461.28;5114434;28;20034;-59
2023/10/15 06:41:00;;;;;;;9.20;3.30;;;;;;;12.64;69.01;98479.06;5115158;27;20111;-57
2023/10/15 06:43:26;;;;;;;7.40;3.28;;;;;;;12.60;67.99;98485.78;5113147;28;20020;-60
2023/10/15 06:45:52;;;;;;;9.00;3.63;;;;;;;12.57;68.82;98471.88;5113883;28;20086;-56
2023/10/15 06:48:18;;;;;;;4.75;2.15;;;;;;;12.26;66.97;98430.47;5114101;28;20028;-57
2023/10/15 06:50:44;;;;;;;5.13;2.55;;;;;;;12.48;67.31;98477.25;5114083;28;20441;-53
2023/10/15 06:53:09;;;;;;;5.38;2.50;;;;;;;12.56;68.73;98473.72;5113974;28;20031;-61
2023/10/15 06:55:35;;;;;;;5.13;1.88;;;;;;;12.49;66.67;98457.44;5114648;27;20052;-63
2023/10/15 06:58:01;;;;;;;6.25;1.42;;;;;;;12.62;67.27;98474.91;5113879;28;20106;-61
2023/10/15 07:00:28;;;;;;;5.45;2.03;;;;;;;12.68;66.89;98476.06;5113680;28;20043;-60
2023/10/15 07:02:54;;;;;;;3.72;1.80;;;;;;;12.55;66.80;98445.19;5113903;28;20043;-61
2023/10/15 07:05:23;;;;;;;9.65;2.10;;;;;;;12.77;66.67;98477.72;5113884;28;20132;-62
2023/10/15 07:07:49;;;;;;;5.13;1.88;;;;;;;12.69;66.73;98459.75;5114766;27;20042;-64
2023/10/15 07:10:17;;;;;;;5.22;1.75;;;;;;;12.80;66.93;98469.31;5113723;28;20340;-64
2023/10/15 07:12:47;;;;;;;5.03;2.03;;;;;;;12.86;66.64;98465.09;5113684;28;20384;-61
2023/10/15 07:15:14;;;;;;;3.97;1.70;;;;;;;12.88;66.06;98469.28;5113431;28;20126;-61
2023/10/15 07:17:41;;;;;;;3.67;1.50;;;;;;;12.93;65.31;98458.03;5113414;28;20035;-60
2023/10/15 07:20:21;;;;;;;2.42;1.38;;;;;;;12.85;65.17;98453.50;5112690;28;20027;-61
2023/10/15 07:22:51;;;;;;;3.38;1.45;;;;;;;13.05;64.77;98466.53;5113687;28;20112;-60
2023/10/15 07:25:18;;;;;;;5.35;1.15;;;;;;;12.99;64.03;98461.88;5113169;28;20354;-58
2023/10/15 07:27:48;;;;;;;2.25;1.20;;;;;;;12.99;63.32;98470.75;5113256;28;20031;-58
2023/10/15 07:30:16;;;;;;;2.78;1.30;;;;;;;12.96;64.52;98463.03;5113258;28;20033;-56
2023/10/15 07:32:46;;;;;;;4.22;1.00;;;;;;;12.95;64.20;98466.75;5113099;28;20055;-62
2023/10/15 07:35:14;;;;;;;3.47;1.20;;;;;;;12.87;63.83;98464.91;5113872;28;20335;-58
2023/10/15 07:37:45;;;;;;;4.15;1.20;;;;;;;12.88;64.15;98461.22;5113206;28;20039;-59
2023/10/15 07:40:21;;;;;;;3.03;1.33;;;;;;;12.81;63.71;98467.47;5112800;28;20031;-61
2023/10/15 07:42:55;;;;;;;7.47;1.50;;;;;;;12.88;63.27;98471.97;5113061;27;20024;-60
2023/10/15 07:45:28;;;;;;;3.67;1.40;;;;;;;12.84;63.29;98465.25;5112879;28;20099;-62
2023/10/15 07:48:01;;;;;;;4.00;1.73;;;;;;;12.88;63.22;98463.09;5113110;28;20035;-61
2023/10/15 07:50:28;;;;;;;4.57;1.88;;;;;;;12.88;63.18;98455.03;5113910;28;20035;-61
2023/10/15 07:52:55;;;;;;;4.53;1.58;;;;;;;12.94;62.14;98448.13;5112920;28;20028;-57
2023/10/15 07:55:23;;;;;;;4.65;1.70;;;;;;;12.97;61.83;98447.78;5112757;28;20088;-57
2023/10/15 07:57:50;;;;;;;3.65;1.67;;;;;;;12.99;61.59;98446.56;5112733;28;20042;-62
2023/10/15 08:00:22;;;;;;;1.70;1.27;;;;;;;12.95;61.41;98445.25;5112459;28;20493;-61
2023/10/15 08:02:52;;;;;;;5.30;1.40;;;;;;;13.02;60.98;98459.69;5114139;28;20049;-61
2023/10/15 08:05:20;;;;;;;3.08;1.20;;;;;;;13.00;61.00;98453.63;5112464;28;20058;-61
2023/10/15 08:07:50;;;;;;;2.53;1.42;;;;;;;12.98;61.62;98454.81;5112383;28;20031;-58
2023/10/15 08:10:17;;;;;;;2.95;1.20;;;;;;;12.97;61.47;98463.91;5112140;28;20067;-61
2023/10/15 08:12:44;;;;;;;4.07;1.20;;;;;;;12.97;61.84;98469.28;5111831;28;20398;-60
2023/10/15 08:15:10;;;;;;;2.95;1.33;;;;;;;12.97;62.38;98459.34;5112088;28;20407;-65
2023/10/15 08:17:36;;;;;;;2.13;1.00;;;;;;;12.99;62.32;98454.63;5115712;28;20049;-62
2023/10/15 08:20:04;;;;;;;6.88;1.42;;;;;;;13.05;62.51;98459.34;5112345;28;20028;-63
2023/10/15 08:22:29;;;;;;;5.25;1.30;;;;;;;13.13;62.15;98455.75;5112123;28;20616;-60
2023/10/15 08:24:57;;;;;;;6.20;1.50;;;;;;;13.20;61.85;98450.53;5112484;28;20447;-58
2023/10/15 08:27:23;;;;;;;6.63;1.75;;;;;;;13.21;61.70;98461.13;5111601;28;20319;-60
2023/10/15 08:29:48;;;;;;;3.63;1.20;;;;;;;13.12;61.94;98464.00;5122073;28;20049;-61
2023/10/15 08:32:16;;;;;;;2.88;1.40;;;;;;;13.17;63.03;98473.22;5131142;27;20035;-61
2023/10/15 08:34:46;;;;;;;4.43;1.40;;;;;;;13.20;62.80;98489.00;5136937;27;20084;-61
2023/10/15 08:37:12;;;;;;;3.88;1.80;;;;;;;13.18;63.54;98480.28;5137135;27;20033;-61
2023/10/15 08:39:40;;;;;;;5.00;2.17;;;;;;;13.02;63.58;98451.63;5128455;27;20031;-62
2023/10/15 08:42:13;;;;;;;8.60;2.17;;;;;;;13.37;63.51;98490.78;5116124;28;20144;-63
2023/10/15 08:44:40;;;;;;;5.28;1.70;;;;;;;13.29;63.00;98484.44;5097939;28;20023;-61
2023/10/15 08:47:10;;;;;;;6.00;2.00;;;;;;;13.40;62.98;98490.44;5116322;27;20051;-62
2023/10/15 08:49:39;;;;;;;6.05;1.58;;;;;;;13.32;62.96;98486.78;5115409;27;20411;-63
2023/10/15 08:52:06;;;;;;;8.90;1.65;;;;;;;13.28;64.07;98482.75;5115720;28;20123;-63
2023/10/15 08:54:38;;;;;;;4.30;1.65;;;;;;;13.29;63.95;98476.38;5115234;28;20035;-62
2023/10/15 08:57:08;;;;;;;3.28;1.80;;;;;;;13.30;63.23;98459.22;5116449;28;20024;-61
2023/10/15 08:59:35;;;;;;;6.03;1.95;;;;;;;13.20;62.84;98453.22;5115899;28;20050;-62
2023/10/15 09:02:05;;;;;;;4.57;1.80;;;;;;;13.24;62.17;98465.28;5115903;27;20039;-64
2023/10/15 09:04:32;;;;;;;5.43;1.63;;;;;;;13.17;62.66;98470.53;5115823;28;20031;-61
2023/10/15 09:07:01;;;;;;;7.82;1.80;;;;;;;13.19;62.56;98468.53;5116096;28;20107;-62
2023/10/15 09:09:32;;;;;;;7.70;1.52;;;;;;;13.18;62.95;98455.25;5115696;27;20020;-62
2023/10/15 09:12:00;;;;;;;8.68;2.17;;;;;;;13.18;61.83;98445.34;5115569;28;20110;-61
2023/10/15 09:14:45;;;;;;;10.68;2.25;;;;;;;13.38;61.96;98449.44;5115580;27;20032;-63
2023/10/15 09:17:16;;;;;;;6.63;1.83;;;;;;;13.35;60.41;98450.63;5131879;27;20032;-61
2023/10/15 09:19:43;;;;;;;5.85;1.88;;;;;;;13.27;60.59;98437.22;5135175;27;20035;-61
2023/10/15 09:22:14;;;;;;;6.53;1.75;;;;;;;13.35;60.38;98448.78;5136035;27;20043;-61
2023/10/15 09:24:41;;;;;;;8.27;1.73;;;;;;;13.37;59.63;98447.78;5136670;27;20043;-62
2023/10/15 09:27:07;;;;;;;8.02;1.83;;;;;;;13.38;59.94;98444.88;5136038;27;20068;-63
2023/10/15 09:29:32;;;;;;;9.23;2.10;;;;;;;13.38;59.92;98454.81;5133865;27;20061;-63
2023/10/15 09:32:02;;;;;;;5.28;2.28;;;;;;;13.39;60.03;98464.56;5135781;27;20446;-61
2023/10/15 09:34:33;;;;;;;8.18;2.00;;;;;;;13.42;60.14;98464.22;5136004;27;20027;-62
2023/10/15 09:36:59;;;;;;;7.43;2.30;;;;;;;13.33;60.41;98466.94;5134515;27;20073;-61
2023/10/15 09:39:28;;;;;;;5.22;1.77;;;;;;;13.37;59.87;98459.34;5135108;27;20109;-63
2023/10/15 09:41:56;;;;;;;7.15;2.70;;;;;;;13.32;59.44;98456.34;5135450;27;20038;-62
2023/10/15 09:44:22;;;;;;;8.85;2.13;;;;;;;13.31;59.64;98449.31;5132880;27;20034;-61
2023/10/15 09:46:48;;;;;;;7.18;2.80;;;;;;;13.28;60.02;98444.28;5135525;27;20058;-61
2023/10/15 09:49:15;;;;;;;6.28;2.40;;;;;;;13.39;60.13;98440.38;5135883;27;20386;-62
2023/10/15 09:51:41;;;;;;;11.00;2.53;;;;;;;13.41;59.49;98451.78;5135682;27;20046;-62
2023/10/15 09:54:14;;;;;;;9.45;2.55;;;;;;;13.48;59.71;98460.84;5135041;27;20031;-61
2023/10/15 09:56:45;;;;;;;6.75;2.42;;;;;;;13.49;59.85;98454.44;5135328;27;20019;-62
2023/10/15 09:59:11;;;;;;;11.13;3.50;;;;;;;13.53;60.25;98458.47;5133918;27;20023;-62
2023/10/15 10:01:39;;;;;;;8.43;2.75;;;;;;;13.58;60.14;98471.38;5133112;27;20041;-62
2023/10/15 10:04:15;;;;;;;7.35;2.90;;;;;;;13.51;60.29;98455.13;5135276;27;20498;-62
2023/10/15 10:06:49;;;;;;;;;;;;;;;14.05;60.13;98459.63;5135794;27;20031;-61
2023/10/15 10:09:51;;;;;;;8.95;2.88;;;;;;;14.04;59.96;98444.50;5135166;27;19934;-61
2023/10/15 10:12:16;;;;;;;10.02;2.45;;;;;;;13.93;59.58;98443.06;5132398;27;20059;-62
2023/10/15 10:15:10;;;;;;;8.75;2.75;;;;;;;14.12;60.08;98451.69;5135402;27;20222;-62
2023/10/15 10:17:38;;;;;;;7.95;3.25;;;;;;;14.06;59.47;98437.06;5093782;28;20028;-61
2023/10/15 10:20:11;;;;;;;8.60;2.90;;;;;;;14.09;59.38;98432.34;5093807;28;20024;-61
2023/10/15 10:22:38;;;;;;;11.23;2.90;;;;;;;14.07;58.82;98429.84;5094106;28;20040;-62
2023/10/15 10:25:06;;;;;;;7.32;3.20;;;;;;;14.15;59.20;98437.03;5093827;28;20032;-61
2023/10/15 10:27:41;;;;;;;9.35;3.28;;;;;;;14.04;59.39;98412.22;5092414;28;20455;-64
2023/10/15 10:30:28;;;;;;;7.95;2.78;;;;;;;14.26;59.17;98450.03;5093895;28;20081;-63
2023/10/15 10:32:57;;;;;;;9.40;3.17;;;;;;;14.18;58.47;98450.13;5116309;27;20084;-63
2023/10/15 10:35:26;;;;;;;8.90;2.92;;;;;;;14.06;58.63;98455.91;5131197;27;20058;-61
2023/10/15 10:38:06;;;;;;;6.80;3.10;;;;;;;14.16;58.94;98449.47;5132392;27;20027;-63
2023/10/15 10:40:47;;;;;;;6.82;3.20;;;;;;;14.23;59.01;98450.41;5112423;27;20161;-62
2023/10/15 10:43:18;;;;;;;9.23;2.63;;;;;;;14.28;59.06;98453.38;5114222;28;20055;-62
2023/10/15 10:45:52;;;;;;;7.90;2.65;;;;;;;14.33;58.68;98448.28;5113962;28;20102;-62
2023/10/15 10:48:22;;;;;;;9.15;3.15;;;;;;;14.35;58.72;98465.13;5114959;27;20428;-62
2023/10/15 10:50:48;;;;;;;7.93;3.17;;;;;;;14.40;58.10;98466.44;5114345;28;20031;-63
2023/10/15 10:53:18;;;;;;;6.93;3.05;;;;;;;14.37;58.03;98435.31;5114020;28;20035;-61
2023/10/15 10:56:01;;;;;;;7.00;3.28;;;;;;;14.39;58.51;98429.75;5113840;28;20043;-61
2023/10/15 10:58:29;;;;;;;7.70;2.90;;;;;;;14.37;57.76;98438.00;5113353;28;20382;-62
2023/10/15 11:00:56;;;;;;;7.30;3.05;;;;;;;14.09;57.57;98403.59;5113776;28;20358;-61
2023/10/15 11:03:23;;;;;;;10.68;2.90;;;;;;;14.32;58.18;98453.88;5114308;27;20027;-61
2023/10/15 11:05:48;;;;;;;6.05;2.38;;;;;;;14.34;57.84;98449.97;5114688;27;20416;-61
2023/10/15 11:08:21;;;;;;;9.10;2.67;;;;;;;14.45;58.36;98458.63;5113659;27;20044;-63
2023/10/15 11:10:48;;;;;;;7.57;2.72;;;;;;;14.27;57.79;98438.25;5114054;28;20031;-64
2023/10/15 11:13:16;;;;;;;8.57;2.45;;;;;;;14.38;57.77;98463.09;5113310;28;20028;-62
2023/10/15 11:15:49;;;;;;;7.50;2.55;;;;;;;14.35;58.02;98472.34;5112921;28;20063;-63
2023/10/15 11:18:24;;;;;;;10.68;3.30;;;;;;;14.41;58.04;98462.72;5113112;28;20080;-62
2023/10/15 11:20:52;;;;;;;8.32;2.63;;;;;;;14.40;57.90;98469.94;5114581;27;20458;-63
2023/10/15 11:23:23;;;;;;;10.18;2.80;;;;;;;14.36;57.60;98460.56;5112791;28;20040;-62
2023/10/15 11:25:54;;;;;;;10.93;5.60;;;;;;;14.33;57.35;98456.34;5092443;28;20048;-63
2023/10/15 11:28:20;;;;;;;9.38;3.60;;;;;;;14.12;57.48;98418.56;5092783;28;20048;-61
2023/10/15 11:30:46;;;;;;;9.30;3.15;;;;;;;14.16;57.11;98439.53;5092523;28;20085;-62
2023/10/15 11:33:16;;;;;;;7.97;3.10;;;;;;;14.20;57.39;98445.38;5091719;28;20043;-63
2023/10/15 11:35:43;;;;;;;6.40;3.08;;;;;;;13.93;57.27;98402.72;5105819;27;20039;-63
2023/10/15 11:38:10;;;;;;;9.85;3.13;;;;;;;14.19;58.25;98468.75;5113453;28;20042;-61
2023/10/15 11:40:39;;;;;;;10.15;2.72;;;;;;;14.17;57.88;98478.88;5113171;28;20031;-64
2023/10/15 11:43:18;;;;;;;7.88;2.53;;;;;;;14.26;58.15;98476.97;5113905;27;20426;-62
2023/10/15 11:45:45;;;;;;;9.90;3.00;;;;;;;14.12;58.24;98478.59;5113143;28;20074;-61
2023/10/15 11:48:12;;;;;;;9.07;3.00;;;;;;;14.06;58.57;98472.06;5114116;28;20507;-60
2023/10/15 11:50:40;;;;;;;6.32;2.47;;;;;;;14.14;57.31;98481.13;5113025;28;20357;-63
2023/10/15 11:53:28;;;;;;;8.00;2.50;;;;;;;14.30;57.46;98456.72;5112856;28;20034;-61
2023/10/15 11:55:53;;;;;;;12.18;2.70;;;;;;;13.99;56.84;98419.16;5112867;28;20106;-65
2023/10/15 11:58:23;;;;;;;8.77;2.38;;;;;;;14.20;57.13;98464.22;5113014;28;20107;-63
2023/10/15 12:00:52;;;;;;;8.93;2.75;;;;;;;14.20;57.38;98467.75;5113318;28;20054;-62